Canby, California
Current Conditions -  °F | °C
As of 3:55 AM on Wednesday 28 Jan 2015 (Local Time) from KAAT Reporting Station
Haze Haze  
Wind Chill: 33°   Ceiling: Unl
Heat Index: 33°   Visibility: 3mi
Dew Point: 30°   Wind: 0mph
Humidity: 89%   Direction: NA
Pressure: 30.31"   Gusts: NA
Location:  41.44°N, 120.87°W
Report Text: KAAT 281155Z AUTO 00000KT 3SM BR CLR 01/M01 A3031 RMK AO2 SLP267 T00061011 10044 20000 58002
Loading
Personal Weather Stations






























Interactive Weather Map New forecast layout! Learn more

10-Day Weather Forecast

Advertisements
Track Severe Weather on mobile